createdAt,value
2023-04-03T00:03:09.647Z,100.00
2023-04-03T00:08:12.095Z,100.00
2023-04-03T00:13:15.074Z,100.00
2023-04-03T00:18:17.385Z,100.00
2023-04-03T00:23:19.932Z,100.00
2023-04-03T00:28:22.621Z,100.00
2023-04-03T00:33:25.802Z,100.00
2023-04-03T00:38:28.002Z,100.00
2023-04-03T00:43:30.657Z,100.00
2023-04-03T00:48:46.214Z,100.00
2023-04-03T00:54:02.518Z,100.00
2023-04-03T00:59:14.217Z,100.00
2023-04-03T01:04:34.476Z,100.00
2023-04-03T01:09:37.997Z,100.00
2023-04-03T01:14:40.691Z,100.00
2023-04-03T01:19:47.194Z,100.00
2023-04-03T01:24:49.629Z,100.00
2023-04-03T01:29:52.127Z,100.00
2023-04-03T01:34:54.360Z,100.00
2023-04-03T01:39:57.246Z,100.00
2023-04-03T01:44:59.794Z,100.00
2023-04-03T01:50:02.384Z,100.00
2023-04-03T01:55:08.821Z,100.00
2023-04-03T02:00:11.833Z,100.00
2023-04-03T02:05:17.863Z,100.00
2023-04-03T02:10:20.111Z,100.00
2023-04-03T02:15:22.503Z,100.00
2023-04-03T02:20:25.037Z,100.00
2023-04-03T02:25:27.591Z,100.00
2023-04-03T02:30:29.934Z,100.00
2023-04-03T02:35:32.161Z,100.00
2023-04-03T02:40:35.420Z,100.00
2023-04-03T02:45:37.955Z,100.00
2023-04-03T02:50:40.240Z,100.00
2023-04-03T02:55:42.992Z,100.00
2023-04-03T03:00:50.697Z,100.00
2023-04-03T03:06:03.483Z,100.00
2023-04-03T03:11:06.721Z,100.00
2023-04-03T03:16:09.741Z,100.00
2023-04-03T03:21:18.744Z,100.00
2023-04-03T03:26:21.394Z,100.00
2023-04-03T03:31:23.891Z,100.00
2023-04-03T03:36:26.779Z,100.00
2023-04-03T03:41:29.106Z,100.00
2023-04-03T03:46:31.954Z,100.00
2023-04-03T03:51:34.448Z,100.00
2023-04-03T03:56:37.036Z,100.00
2023-04-03T04:01:39.519Z,100.00
2023-04-03T04:06:44.650Z,100.00
2023-04-03T04:11:47.903Z,100.00
2023-04-03T04:16:55.024Z,100.00
2023-04-03T04:22:01.129Z,100.00
2023-04-03T04:27:08.567Z,100.00
2023-04-03T04:32:11.757Z,100.00
2023-04-03T04:37:14.465Z,100.00
2023-04-03T04:42:18.123Z,100.00
2023-04-03T04:47:23.385Z,100.00
2023-04-03T04:52:26.913Z,100.00
2023-04-03T04:57:29.414Z,100.00
2023-04-03T05:02:34.317Z,100.00
2023-04-03T05:07:37.033Z,100.00
2023-04-03T05:12:39.674Z,100.00
2023-04-03T05:17:42.165Z,100.00
2023-04-03T05:22:47.900Z,100.00
2023-04-03T05:27:51.388Z,100.00
2023-04-03T05:32:54.143Z,100.00
2023-04-03T05:38:16.383Z,98.23
2023-04-03T05:43:19.520Z,92.44
2023-04-03T05:48:22.038Z,88.25
2023-04-03T05:53:29.612Z,72.28
2023-04-03T05:58:37.948Z,64.66
2023-04-03T06:03:41.437Z,67.15
2023-04-03T06:08:47.505Z,65.91
2023-04-03T06:13:49.992Z,70.27
2023-04-03T06:18:54.584Z,61.65
2023-04-03T06:23:57.180Z,51.85
2023-04-03T06:28:59.618Z,52.42
2023-04-03T06:34:02.652Z,54.49
2023-04-03T06:39:08.508Z,53.76
2023-04-03T06:44:12.339Z,51.66
2023-04-03T06:49:14.774Z,49.92
2023-04-03T06:54:53.419Z,51.28
2023-04-03T07:00:15.263Z,50.78
2023-04-03T07:05:19.930Z,52.35
2023-04-03T07:10:24.964Z,49.13
2023-04-03T07:15:31.219Z,45.68
2023-04-03T07:20:33.723Z,43.52
2023-04-03T07:25:46.091Z,42.80
2023-04-03T07:30:54.596Z,43.77
2023-04-03T07:36:13.544Z,43.41
2023-04-03T07:41:22.574Z,41.96
2023-04-03T07:46:28.079Z,41.35
2023-04-03T07:51:31.160Z,43.74
2023-04-03T07:56:33.725Z,42.66
2023-04-03T08:01:35.999Z,43.16
2023-04-03T08:06:46.272Z,41.65
2023-04-03T08:11:49.600Z,40.78
2023-04-03T08:16:52.047Z,40.62
2023-04-03T08:21:55.976Z,41.30
2023-04-03T08:26:59.666Z,42.97
2023-04-03T08:32:02.085Z,45.03
2023-04-03T08:37:04.595Z,44.79
2023-04-03T08:42:17.132Z,44.60
2023-04-03T08:47:56.519Z,44.65
2023-04-03T08:53:06.800Z,42.99
2023-04-03T08:58:22.948Z,44.51
2023-04-03T09:03:26.751Z,43.76
2023-04-03T09:09:08.350Z,42.93
2023-04-03T09:14:33.259Z,41.62
2023-04-03T09:19:59.464Z,41.32
2023-04-03T09:25:24.460Z,41.81
2023-04-03T09:30:28.880Z,41.85
2023-04-03T09:35:44.652Z,43.48
2023-04-03T09:41:05.002Z,43.99
2023-04-03T09:46:29.650Z,43.79
2023-04-03T09:57:16.169Z,45.47
2023-04-03T10:02:32.544Z,44.66
2023-04-03T10:07:38.857Z,45.60
2023-04-03T10:12:41.280Z,44.56
2023-04-03T10:17:43.872Z,44.47
2023-04-03T10:23:19.254Z,44.66
2023-04-03T10:28:48.530Z,44.28
2023-04-03T10:34:28.395Z,46.24
2023-04-03T10:39:50.696Z,46.87
2023-04-03T10:44:59.048Z,47.31
2023-04-03T10:50:26.386Z,47.64
2023-04-03T10:56:09.715Z,46.04
2023-04-03T11:01:21.880Z,47.23
2023-04-03T11:06:28.033Z,48.37
2023-04-03T11:11:40.170Z,46.88
2023-04-03T11:16:54.086Z,46.68
2023-04-03T11:22:10.153Z,48.17
2023-04-03T11:27:24.037Z,48.04
2023-04-03T11:32:38.828Z,48.21
2023-04-03T11:37:53.220Z,48.95
2023-04-03T11:43:06.779Z,48.46
2023-04-03T11:48:32.956Z,49.75
2023-04-03T11:53:40.502Z,51.65
2023-04-03T11:59:14.936Z,56.51
2023-04-03T12:04:22.005Z,77.19
2023-04-03T12:09:53.470Z,84.00
2023-04-03T12:14:56.216Z,83.50
2023-04-03T12:19:58.900Z,84.61
2023-04-03T12:25:41.329Z,83.82
2023-04-03T12:30:45.439Z,83.84
2023-04-03T12:36:12.629Z,79.88
2023-04-03T12:41:33.727Z,78.89
2023-04-03T12:46:45.420Z,77.57
2023-04-03T12:51:48.693Z,84.04
2023-04-03T12:57:11.966Z,94.15
2023-04-03T13:02:27.016Z,97.47
2023-04-03T13:07:42.064Z,100.00
2023-04-03T13:12:55.847Z,100.00
2023-04-03T13:17:58.512Z,100.00
2023-04-03T13:23:06.308Z,100.00
2023-04-03T13:28:14.351Z,100.00
2023-04-03T13:33:25.668Z,100.00
2023-04-03T13:38:35.130Z,100.00
2023-04-03T13:43:39.290Z,100.00
2023-04-03T13:48:49.308Z,100.00
2023-04-03T13:53:58.882Z,100.00
2023-04-03T13:59:06.359Z,100.00
2023-04-03T14:04:25.490Z,100.00
2023-04-03T14:09:29.128Z,100.00
2023-04-03T14:14:34.054Z,100.00
2023-04-03T14:19:37.454Z,100.00
2023-04-03T14:24:48.020Z,100.00
2023-04-03T14:29:52.955Z,100.00
2023-04-03T14:34:56.870Z,100.00
2023-04-03T14:40:02.038Z,100.00
2023-04-03T14:45:10.319Z,100.00
2023-04-03T14:50:17.221Z,100.00
2023-04-03T14:55:23.109Z,100.00
2023-04-03T15:00:25.531Z,100.00
2023-04-03T15:05:28.147Z,100.00
2023-04-03T15:10:32.102Z,100.00
2023-04-03T15:15:39.430Z,100.00
2023-04-03T15:20:41.998Z,100.00
2023-04-03T15:25:46.747Z,100.00
2023-04-03T15:30:49.247Z,100.00
2023-04-03T15:35:52.528Z,100.00
2023-04-03T15:40:57.391Z,100.00
2023-04-03T15:46:00.966Z,100.00
2023-04-03T15:51:03.318Z,100.00
2023-04-03T15:56:06.103Z,100.00
2023-04-03T16:01:12.584Z,100.00
2023-04-03T16:06:20.209Z,100.00
2023-04-03T16:11:22.611Z,100.00
2023-04-03T16:16:28.545Z,100.00
2023-04-03T16:21:31.967Z,100.00
2023-04-03T16:26:34.399Z,100.00
2023-04-03T16:31:38.449Z,100.00
2023-04-03T16:36:43.599Z,100.00
2023-04-03T16:41:46.656Z,100.00
2023-04-03T16:46:49.151Z,100.00
2023-04-03T16:51:51.796Z,100.00
2023-04-03T16:56:54.635Z,100.00
2023-04-03T17:01:56.994Z,100.00
2023-04-03T17:07:01.311Z,100.00
2023-04-03T17:12:05.063Z,100.00
2023-04-03T17:17:09.080Z,100.00
2023-04-03T17:22:11.507Z,100.00
2023-04-03T17:27:13.795Z,100.00
2023-04-03T17:32:16.332Z,100.00
2023-04-03T17:37:18.943Z,100.00
2023-04-03T17:42:21.705Z,100.00
2023-04-03T17:47:24.353Z,100.00
2023-04-03T17:52:28.759Z,100.00
2023-04-03T17:57:32.253Z,100.00
2023-04-03T18:02:34.646Z,100.00
2023-04-03T18:07:38.934Z,100.00
2023-04-03T18:12:42.747Z,100.00
2023-04-03T18:17:47.112Z,100.00
2023-04-03T18:22:49.906Z,100.00
2023-04-03T18:27:53.571Z,100.00
2023-04-03T18:32:56.126Z,100.00
2023-04-03T18:37:58.475Z,100.00
2023-04-03T18:43:02.668Z,100.00
2023-04-03T18:48:05.774Z,100.00
2023-04-03T18:53:08.116Z,100.00
2023-04-03T18:58:10.367Z,100.00
2023-04-03T19:03:14.001Z,100.00
2023-04-03T19:08:16.601Z,100.00
2023-04-03T19:13:18.923Z,100.00
2023-04-03T19:18:21.222Z,100.00
2023-04-03T19:23:27.204Z,100.00
2023-04-03T19:28:30.052Z,100.00
2023-04-03T19:33:32.287Z,100.00
2023-04-03T19:38:34.812Z,100.00
2023-04-03T19:43:37.650Z,100.00
2023-04-03T19:48:40.192Z,100.00
2023-04-03T19:53:42.524Z,100.00
2023-04-03T19:58:45.098Z,100.00
2023-04-03T20:03:48.245Z,100.00
2023-04-03T20:08:50.509Z,100.00
2023-04-03T20:13:54.317Z,100.00
2023-04-03T20:18:57.476Z,100.00
2023-04-03T20:24:05.274Z,100.00
2023-04-03T20:29:07.781Z,100.00
2023-04-03T20:34:10.163Z,100.00
2023-04-03T20:39:12.753Z,100.00
2023-04-03T20:44:15.686Z,100.00
2023-04-03T20:49:18.187Z,100.00
2023-04-03T20:54:21.000Z,100.00
2023-04-03T20:59:24.437Z,100.00
2023-04-03T21:04:30.835Z,100.00
2023-04-03T21:10:11.050Z,100.00
2023-04-03T21:15:52.506Z,100.00
2023-04-03T21:20:55.455Z,100.00
2023-04-03T21:26:00.138Z,100.00
2023-04-03T21:31:02.616Z,100.00
2023-04-03T21:36:05.069Z,100.00
2023-04-03T21:41:07.355Z,100.00
2023-04-03T21:46:09.875Z,100.00
2023-04-03T21:51:12.426Z,100.00
2023-04-03T21:56:14.774Z,100.00
2023-04-03T22:01:18.328Z,100.00
2023-04-03T22:06:20.866Z,100.00
2023-04-03T22:11:24.944Z,100.00
2023-04-03T22:16:27.977Z,100.00
2023-04-03T22:21:31.258Z,100.00
2023-04-03T22:26:34.514Z,100.00
2023-04-03T22:31:41.894Z,100.00
2023-04-03T22:36:44.415Z,100.00
2023-04-03T22:41:46.532Z,100.00
2023-04-03T22:46:48.839Z,100.00
2023-04-03T22:51:51.043Z,100.00
2023-04-03T22:56:53.766Z,100.00
2023-04-03T23:01:55.986Z,100.00
2023-04-03T23:07:00.578Z,100.00
2023-04-03T23:12:02.925Z,100.00
2023-04-03T23:17:06.348Z,100.00
2023-04-03T23:22:08.613Z,100.00
2023-04-03T23:27:10.878Z,100.00
2023-04-03T23:32:13.468Z,100.00
2023-04-03T23:37:16.001Z,100.00
2023-04-03T23:42:21.835Z,100.00
2023-04-03T23:47:24.251Z,100.00
2023-04-03T23:52:26.622Z,100.00
2023-04-03T23:57:28.907Z,100.00
